Time;durP1;ratioP1;P1;durP2;ratioP2;P2;SDS_P1;SDS_P2;PMS_P1;PMS_P2;Temp;Humidity;BMP_temperature;BMP_pressure;BME280_temperature;BME280_humidity;BME280_pressure;Samples;Min_cycle;Max_cycle;Signal;HPM_P1;HPM_P2
2022/05/01 00:00:49;;;;;;;59.85;36.13;;;;;;;11.99;67.66;99631.66;5206037;28;20140;-69
2022/05/01 00:03:41;;;;;;;59.35;35.80;;;;;;;12.00;67.33;99628.00;5204885;28;20057;-68
2022/05/01 00:06:33;;;;;;;65.32;35.95;;;;;;;12.06;67.24;99621.31;5205100;28;20052;-68
2022/05/01 00:09:23;;;;;;;63.08;36.30;;;;;;;11.92;67.63;99606.56;5206628;28;20056;-68
2022/05/01 00:12:13;;;;;;;65.72;36.03;;;;;;;11.96;66.35;99627.44;5205835;28;20064;-69
2022/05/01 00:15:03;;;;;;;61.63;33.78;;;;;;;11.68;67.21;99606.91;5206017;28;20095;-68
2022/05/01 00:17:54;;;;;;;59.88;33.92;;;;;;;11.93;67.10;99609.13;5205725;28;20108;-68
2022/05/01 00:20:45;;;;;;;56.83;34.42;;;;;;;11.81;67.09;99614.66;5205821;28;20092;-68
2022/05/01 00:23:35;;;;;;;63.85;34.92;;;;;;;11.90;66.99;99616.53;5206041;28;20053;-68
2022/05/01 00:26:25;;;;;;;62.45;36.45;;;;;;;11.79;66.31;99596.19;5205618;28;20456;-68
2022/05/01 00:29:15;;;;;;;64.57;36.10;;;;;;;11.77;67.24;99593.66;5205782;28;20053;-68
2022/05/01 00:32:06;;;;;;;61.13;34.35;;;;;;;11.95;66.37;99608.97;5204998;28;20068;-68
2022/05/01 00:38:08;;;;;;;59.35;33.72;;;;;;;11.85;66.69;99606.28;5205694;28;20527;-68
2022/05/01 00:40:59;;;;;;;66.07;35.38;;;;;;;11.83;66.60;99610.88;5205326;28;20093;-68
2022/05/01 00:43:56;;;;;;;58.33;35.15;;;;;;;11.97;66.64;99609.69;5204451;28;20061;-68
2022/05/01 00:46:51;;;;;;;60.40;35.10;;;;;;;11.96;66.27;99615.97;5204189;28;20057;-68
2022/05/01 00:49:41;;;;;;;60.58;33.78;;;;;;;11.79;66.34;99604.16;5204244;28;20075;-68
2022/05/01 00:52:32;;;;;;;53.63;32.70;;;;;;;11.69;66.82;99600.66;5205122;28;20056;-67
2022/05/01 00:55:22;;;;;;;62.60;35.00;;;;;;;11.76;67.06;99605.28;5204953;28;20073;-68
2022/05/01 00:58:12;;;;;;;54.45;32.97;;;;;;;11.73;66.72;99600.25;5205058;28;20076;-67
2022/05/01 01:01:04;;;;;;;60.13;33.85;;;;;;;11.66;67.11;99593.78;5204516;28;20053;-68
2022/05/01 01:03:54;;;;;;;55.92;33.67;;;;;;;11.85;66.26;99602.78;5203567;28;20700;-68
2022/05/01 01:06:45;;;;;;;63.63;34.63;;;;;;;11.77;66.67;99616.75;5184533;28;20124;-68
2022/05/01 01:09:35;;;;;;;59.53;34.83;;;;;;;11.79;66.30;99611.28;5184520;28;20119;-68
2022/05/01 01:15:35;;;;;;;61.28;34.45;;;;;;;11.74;67.26;99609.03;5184234;28;20096;-68
2022/05/01 01:18:26;;;;;;;67.75;35.10;;;;;;;11.63;67.05;99610.00;5184666;28;20148;-68
2022/05/01 01:21:16;;;;;;;65.80;35.70;;;;;;;11.70;66.68;99608.47;5204215;28;20587;-68
2022/05/01 01:24:10;;;;;;;64.13;34.90;;;;;;;11.88;66.59;99607.84;5203787;28;20064;-68
2022/05/01 01:27:01;;;;;;;64.83;35.10;;;;;;;11.47;67.66;99607.84;5204555;28;20053;-67
2022/05/01 01:33:02;;;;;;;71.63;34.67;;;;;;;11.71;67.14;99607.50;5221158;28;20084;-68
2022/05/01 01:35:56;;;;;;;59.58;34.65;;;;;;;11.76;66.71;99607.94;5204707;28;20112;-68
2022/05/01 01:38:46;;;;;;;60.35;35.38;;;;;;;11.66;67.56;99608.91;5204460;28;20049;-68
2022/05/01 01:41:41;;;;;;;62.70;33.22;;;;;;;11.76;67.37;99601.78;5183310;28;20062;-68
2022/05/01 01:44:37;;;;;;;63.40;34.80;;;;;;;11.95;66.46;99593.88;5183693;28;20061;-68
2022/05/01 01:47:27;;;;;;;62.80;35.05;;;;;;;11.68;67.16;99585.66;5195513;28;20579;-69
2022/05/01 01:50:17;;;;;;;60.35;34.75;;;;;;;11.35;68.11;99578.88;5202368;28;20048;-68
2022/05/01 01:53:10;;;;;;;61.67;33.92;;;;;;;11.45;68.33;99579.75;5203877;28;20049;-68
2022/05/01 01:56:00;;;;;;;63.92;34.28;;;;;;;11.39;68.27;99575.81;5203654;28;20053;-68
2022/05/01 01:58:51;;;;;;;68.38;36.38;;;;;;;11.37;69.22;99583.06;5204033;28;20103;-68
2022/05/01 02:01:43;;;;;;;71.68;34.85;;;;;;;11.61;67.57;99580.06;5201475;28;20134;-68
2022/05/01 02:04:34;;;;;;;63.83;34.78;;;;;;;11.55;67.50;99585.06;5203900;28;20046;-68
2022/05/01 02:07:24;;;;;;;63.70;34.80;;;;;;;11.69;67.13;99574.94;5203775;28;20160;-68
2022/05/01 02:10:15;;;;;;;65.57;36.30;;;;;;;11.12;68.64;99570.25;5203334;28;20045;-68
2022/05/01 02:13:06;;;;;;;61.85;35.90;;;;;;;11.21;68.21;99569.47;5183182;28;20459;-68
2022/05/01 02:15:56;;;;;;;73.80;35.42;;;;;;;11.67;66.96;99579.53;5182839;28;20058;-68
2022/05/01 02:18:46;;;;;;;63.47;35.13;;;;;;;11.50;67.78;99582.84;5182955;28;20080;-67
2022/05/01 02:21:36;;;;;;;61.70;35.20;;;;;;;11.55;67.73;99569.97;5182566;28;20137;-68
2022/05/01 02:24:29;;;;;;;62.63;35.40;;;;;;;11.56;67.84;99576.16;5183010;28;20064;-68
2022/05/01 02:27:20;;;;;;;61.85;36.33;;;;;;;11.39;67.22;99569.66;5201547;28;20056;-68
2022/05/01 02:30:10;;;;;;;67.07;35.78;;;;;;;11.51;66.53;99576.53;5203334;28;20557;-68
2022/05/01 02:33:00;;;;;;;60.67;34.75;;;;;;;11.69;66.89;99572.28;5203143;28;20132;-67
2022/05/01 02:35:50;;;;;;;65.03;34.08;;;;;;;11.61;66.20;99569.44;5203215;28;20080;-68
2022/05/01 02:38:40;;;;;;;65.57;34.72;;;;;;;11.63;66.37;99575.47;5203404;28;20045;-68
2022/05/01 02:41:31;;;;;;;63.38;35.22;;;;;;;11.32;66.94;99547.28;5202533;28;20076;-68
2022/05/01 02:44:20;;;;;;;64.15;34.33;;;;;;;11.62;66.72;99562.31;5202849;28;20045;-68
2022/05/01 02:47:11;;;;;;;59.95;33.63;;;;;;;11.69;66.85;99571.44;5202984;28;20072;-68
2022/05/01 02:50:03;;;;;;;62.13;35.03;;;;;;;11.67;66.62;99566.25;5202351;28;20072;-67
2022/05/01 02:52:54;;;;;;;64.00;35.40;;;;;;;11.64;67.63;99565.69;5202969;28;20057;-67
2022/05/01 02:55:43;;;;;;;64.35;35.78;;;;;;;11.66;67.65;99566.41;5202383;28;20115;-68
2022/05/01 02:58:33;;;;;;;61.05;34.92;;;;;;;11.66;67.61;99561.09;5203111;28;20146;-68
2022/05/01 03:01:23;;;;;;;70.00;37.20;;;;;;;11.70;67.69;99551.84;5201439;28;20123;-68
2022/05/01 03:04:14;;;;;;;60.58;35.65;;;;;;;11.58;67.62;99542.31;5202381;28;20511;-68
2022/05/01 03:07:07;;;;;;;63.55;36.25;;;;;;;11.68;67.96;99564.41;5202699;28;20061;-68
2022/05/01 03:09:57;;;;;;;64.47;35.92;;;;;;;11.62;68.11;99557.88;5202777;28;20072;-68
2022/05/01 03:12:47;;;;;;;63.42;37.15;;;;;;;11.40;68.53;99553.59;5202314;28;20119;-68
2022/05/01 03:15:36;;;;;;;66.85;36.90;;;;;;;11.64;67.59;99557.72;5202425;28;20500;-68
2022/05/01 03:24:44;;;;;;;71.72;36.60;;;;;;;11.73;67.55;99546.28;5202322;28;20054;-68
2022/05/01 03:27:34;;;;;;;64.05;35.90;;;;;;;11.57;67.63;99546.78;5202274;28;20049;-68
2022/05/01 03:30:25;;;;;;;62.92;35.88;;;;;;;11.64;67.29;99553.22;5202331;28;20046;-68
2022/05/01 03:33:16;;;;;;;62.63;35.33;;;;;;;11.72;67.33;99542.78;5201937;28;20662;-68
2022/05/01 03:36:07;;;;;;;64.18;35.28;;;;;;;11.64;67.65;99547.91;5202402;28;20546;-68
2022/05/01 03:38:57;;;;;;;70.05;35.15;;;;;;;11.68;67.45;99543.16;5202537;28;20127;-68
2022/05/01 03:41:47;;;;;;;59.88;34.13;;;;;;;11.65;67.22;99546.09;5202206;28;20080;-67
2022/05/01 03:44:38;;;;;;;64.75;38.47;;;;;;;11.65;68.05;99551.41;5201764;28;20061;-67
2022/05/01 03:47:27;;;;;;;66.63;35.85;;;;;;;11.52;67.73;99533.06;5202663;28;20566;-66
2022/05/01 03:50:18;;;;;;;68.10;37.53;;;;;;;11.59;67.88;99547.50;5188512;28;20053;-68
2022/05/01 03:53:12;;;;;;;68.13;37.23;;;;;;;11.60;67.23;99551.00;5202565;28;20496;-68
2022/05/01 03:56:02;;;;;;;65.65;36.92;;;;;;;11.43;68.06;99541.88;5202032;28;20115;-67
2022/05/01 03:58:52;;;;;;;69.78;36.78;;;;;;;11.47;68.26;99545.94;5202249;28;20163;-67
2022/05/01 04:01:43;;;;;;;66.57;37.03;;;;;;;11.44;67.89;99530.28;5201946;28;20751;-69
2022/05/01 04:04:33;;;;;;;68.63;37.08;;;;;;;11.46;67.25;99553.06;5200773;28;20045;-68
2022/05/01 04:07:23;;;;;;;69.28;37.30;;;;;;;11.42;68.54;99553.44;5202041;28;20080;-69
2022/05/01 04:10:13;;;;;;;68.43;38.28;;;;;;;11.39;68.14;99559.03;5201961;28;20061;-69
2022/05/01 04:13:03;;;;;;;73.72;37.90;;;;;;;11.34;68.83;99550.66;5201964;28;20559;-68
2022/05/01 04:15:54;;;;;;;69.97;37.75;;;;;;;11.45;68.42;99554.03;5201746;28;20538;-68
2022/05/01 04:18:44;;;;;;;76.20;39.75;;;;;;;11.37;68.38;99543.25;5201792;28;20526;-68
2022/05/01 04:21:37;;;;;;;71.40;39.20;;;;;;;11.46;68.77;99558.38;5180080;28;20066;-68
2022/05/01 04:24:27;;;;;;;76.22;38.35;;;;;;;11.59;67.47;99544.84;5182384;28;20439;-68
2022/05/01 04:27:18;;;;;;;70.90;37.40;;;;;;;11.63;68.08;99551.56;5185219;28;20524;-68
2022/05/01 04:30:09;;;;;;;69.95;38.25;;;;;;;11.71;68.27;99551.69;5185265;28;20516;-68
2022/05/01 04:33:06;;;;;;;71.90;37.25;;;;;;;11.65;67.81;99551.41;5185048;28;20133;-68
2022/05/01 04:35:56;;;;;;;75.30;39.28;;;;;;;11.76;67.17;99538.88;5184958;28;20061;-68
2022/05/01 04:38:46;;;;;;;79.57;41.25;;;;;;;11.87;67.36;99561.00;5185167;28;20041;-68
2022/05/01 04:41:36;;;;;;;72.88;38.75;;;;;;;11.68;68.48;99549.31;5184685;28;20127;-68
2022/05/01 04:44:27;;;;;;;84.68;41.00;;;;;;;11.57;68.90;99561.91;5184170;28;20580;-68
2022/05/01 04:47:18;;;;;;;81.28;40.65;;;;;;;11.32;69.20;99557.91;5184873;28;20065;-68
2022/05/01 04:50:09;;;;;;;71.35;37.85;;;;;;;11.63;68.37;99559.53;5203297;28;20068;-68
2022/05/01 04:53:00;;;;;;;73.50;39.38;;;;;;;11.75;67.80;99565.53;5204876;28;20053;-68
2022/05/01 04:55:52;;;;;;;69.88;38.60;;;;;;;11.39;68.89;99567.00;5204733;28;20049;-68
2022/05/01 04:58:42;;;;;;;74.63;38.30;;;;;;;11.62;68.10;99572.94;5205244;28;20096;-68
2022/05/01 05:01:32;;;;;;;71.57;38.10;;;;;;;11.57;67.64;99559.25;5204849;28;20076;-68
2022/05/01 05:04:23;;;;;;;74.85;41.42;;;;;;;11.63;68.62;99566.66;5204417;28;20212;-68
2022/05/01 05:07:13;;;;;;;66.35;38.28;;;;;;;11.68;67.84;99572.38;5203405;28;20427;-68
2022/05/01 05:10:04;;;;;;;74.38;38.80;;;;;;;11.53;69.05;99556.00;5203949;28;20088;-68
2022/05/01 05:12:58;;;;;;;79.47;41.38;;;;;;;11.87;68.31;99582.25;5204577;28;20150;-69
2022/05/01 05:15:53;;;;;;;;;;;;;;;11.86;67.69;99578.75;5204443;28;20056;-68
2022/05/01 05:18:44;;;;;;;78.20;40.08;;;;;;;11.99;67.88;99583.81;5204382;28;19928;-68
2022/05/01 05:21:34;;;;;;;73.78;39.15;;;;;;;11.47;69.41;99570.66;5204419;28;20515;-68
2022/05/01 05:24:24;;;;;;;69.35;38.05;;;;;;;11.76;67.56;99580.53;5204554;28;20175;-68
2022/05/01 05:27:15;;;;;;;79.40;40.70;;;;;;;11.94;67.54;99589.53;5202465;28;20072;-68
2022/05/01 05:30:06;;;;;;;69.78;39.25;;;;;;;11.90;67.73;99601.41;5203332;28;20057;-68
2022/05/01 05:32:58;;;;;;;80.55;40.30;;;;;;;11.89;68.26;99594.44;5204324;28;20056;-68
2022/05/01 05:35:49;;;;;;;71.97;39.05;;;;;;;12.14;66.47;99592.22;5183569;28;20146;-68
2022/05/01 05:38:39;;;;;;;72.90;36.63;;;;;;;12.03;66.40;99595.84;5184041;28;20528;-68
2022/05/01 05:41:29;;;;;;;68.53;36.97;;;;;;;11.77;67.67;99564.44;5183332;28;20785;-68
2022/05/01 05:44:19;;;;;;;78.45;40.17;;;;;;;12.17;67.36;99602.56;5183743;28;20619;-68
2022/05/01 05:47:09;;;;;;;72.60;37.85;;;;;;;12.29;66.11;99601.47;5183626;28;20054;-68
2022/05/01 05:49:59;;;;;;;65.30;35.97;;;;;;;12.44;65.95;99599.19;5203934;28;20518;-68
2022/05/01 05:52:49;;;;;;;64.10;36.38;;;;;;;12.46;65.66;99598.09;5203991;28;20143;-68
2022/05/01 05:55:39;;;;;;;71.53;36.28;;;;;;;12.40;65.86;99597.81;5203824;28;20056;-68
2022/05/01 05:58:30;;;;;;;65.30;36.45;;;;;;;12.50;65.67;99595.16;5203133;28;20115;-68
2022/05/01 06:01:19;;;;;;;61.00;35.75;;;;;;;12.55;65.73;99600.88;5203686;28;20054;-68
2022/05/01 06:04:09;;;;;;;60.60;35.28;;;;;;;12.53;65.30;99593.03;5203686;28;20754;-68
2022/05/01 06:06:59;;;;;;;65.05;34.22;;;;;;;12.44;64.96;99600.03;5203971;28;20448;-68
2022/05/01 06:09:49;;;;;;;63.85;34.67;;;;;;;12.52;65.82;99586.06;5204623;28;20055;-68
2022/05/01 06:12:43;;;;;;;62.38;34.95;;;;;;;12.74;64.73;99595.53;5203498;28;20511;-68
2022/05/01 06:15:43;;;;;;;63.80;36.10;;;;;;;12.55;65.21;99580.44;5203699;28;20846;-68
2022/05/01 06:18:33;;;;;;;59.42;34.45;;;;;;;12.52;65.14;99599.34;5200934;28;20122;-68
2022/05/01 06:21:23;;;;;;;61.25;34.95;;;;;;;12.51;64.38;99604.78;5190458;28;20055;-68
2022/05/01 06:24:13;;;;;;;60.53;34.63;;;;;;;12.67;64.83;99599.75;5193283;28;20045;-67
2022/05/01 06:27:04;;;;;;;61.58;34.38;;;;;;;12.81;64.72;99601.13;5202118;28;20041;-70
2022/05/01 06:29:54;;;;;;;59.28;33.63;;;;;;;13.56;63.26;99591.34;5202455;28;20045;-69
2022/05/01 06:32:44;;;;;;;58.97;33.33;;;;;;;13.45;61.61;99594.22;5201621;28;20507;-68
2022/05/01 06:35:34;;;;;;;54.70;32.08;;;;;;;13.23;62.83;99598.06;5202139;28;20041;-69
2022/05/01 06:38:25;;;;;;;58.08;33.35;;;;;;;13.45;62.12;99604.88;5202875;28;20527;-68
2022/05/01 06:41:16;;;;;;;57.30;30.98;;;;;;;13.28;62.12;99598.50;5200091;28;20127;-68
2022/05/01 06:44:07;;;;;;;58.83;32.22;;;;;;;13.52;63.45;99604.13;5200447;28;20139;-68
2022/05/01 06:46:57;;;;;;;58.05;30.55;;;;;;;13.24;62.96;99589.06;5202231;28;20083;-68
2022/05/01 06:49:47;;;;;;;51.80;29.80;;;;;;;12.99;63.60;99599.41;5202794;28;20076;-68
2022/05/01 06:52:38;;;;;;;54.50;30.95;;;;;;;13.21;62.41;99602.69;5202855;28;20068;-68
2022/05/01 06:55:28;;;;;;;50.97;30.33;;;;;;;13.14;63.29;99599.75;5202703;28;20158;-67
2022/05/01 06:58:19;;;;;;;48.38;30.38;;;;;;;13.84;61.47;99601.03;5202891;28;20435;-67
2022/05/01 07:01:09;;;;;;;51.70;30.33;;;;;;;13.61;60.48;99600.59;5202456;28;20072;-67
2022/05/01 07:03:59;;;;;;;54.83;30.52;;;;;;;13.67;60.82;99599.13;5201369;28;20057;-67
2022/05/01 07:06:50;;;;;;;49.70;29.92;;;;;;;13.82;60.08;99604.81;5202805;28;20494;-67
2022/05/01 07:09:40;;;;;;;47.17;29.83;;;;;;;13.52;61.65;99588.16;5203022;28;20450;-68
2022/05/01 07:12:34;;;;;;;46.67;30.15;;;;;;;13.30;61.98;99615.16;5202642;28;20171;-67
2022/05/01 07:15:24;;;;;;;55.73;29.50;;;;;;;13.73;61.38;99609.19;5201574;28;20419;-66
2022/05/01 07:18:15;;;;;;;53.60;28.42;;;;;;;12.77;62.81;99615.69;5202507;28;20063;-68
2022/05/01 07:21:05;;;;;;;49.70;29.52;;;;;;;13.73;61.44;99603.03;5181897;28;20323;-68
2022/05/01 07:23:56;;;;;;;44.42;28.48;;;;;;;13.78;59.93;99568.78;5181977;28;20108;-68
2022/05/01 07:26:46;;;;;;;50.75;29.73;;;;;;;13.39;61.89;99611.63;5182035;28;20056;-72
2022/05/01 07:29:36;;;;;;;49.45;30.63;;;;;;;13.78;60.23;99617.59;5180951;28;20527;-69
2022/05/01 07:32:26;;;;;;;49.10;30.75;;;;;;;14.32;59.72;99610.50;5193336;28;20049;-68
2022/05/01 07:35:18;;;;;;;54.72;30.55;;;;;;;14.49;58.72;99599.97;5200708;28;20060;-68
2022/05/01 07:38:08;;;;;;;47.72;27.52;;;;;;;14.68;58.99;99604.31;5202115;28;20068;-71
2022/05/01 07:40:58;;;;;;;49.22;28.08;;;;;;;14.57;59.74;99606.25;5200791;28;20072;-68
2022/05/01 07:43:48;;;;;;;47.40;29.88;;;;;;;14.67;59.90;99599.97;5200494;28;20136;-68
2022/05/01 07:46:40;;;;;;;48.15;28.83;;;;;;;14.96;60.04;99602.34;5201573;28;20148;-69
2022/05/01 07:49:30;;;;;;;47.58;28.00;;;;;;;15.09;58.94;99593.91;5201393;28;20124;-70
2022/05/01 07:52:21;;;;;;;40.08;26.92;;;;;;;15.52;58.58;99598.28;5201115;28;20593;-69
2022/05/01 07:55:11;;;;;;;47.75;28.33;;;;;;;15.86;56.05;99598.31;5201266;28;20059;-68
2022/05/01 07:58:01;;;;;;;43.00;27.17;;;;;;;15.49;57.82;99604.78;5199032;28;20053;-70
2022/05/01 08:00:51;;;;;;;38.53;24.30;;;;;;;14.98;57.16;99606.53;5204682;28;20045;-68
2022/05/01 08:06:50;;;;;;;37.03;24.40;;;;;;;16.01;55.83;99585.13;5205582;28;20132;-70
2022/05/01 08:09:41;;;;;;;38.25;23.02;;;;;;;15.71;56.08;99594.56;5203874;28;20502;-70
2022/05/01 08:12:32;;;;;;;43.00;24.08;;;;;;;15.81;54.69;99578.38;5202762;28;20060;-71
2022/05/01 08:15:22;;;;;;;33.10;21.75;;;;;;;16.05;53.89;99588.28;5203367;28;20064;-69
2022/05/01 08:21:21;;;;;;;35.90;22.42;;;;;;;15.73;55.45;99592.56;5204123;28;20076;-69
2022/05/01 08:24:11;;;;;;;35.03;22.60;;;;;;;16.67;54.64;99599.38;5205239;28;20599;-71
2022/05/01 08:27:05;;;;;;;36.88;22.83;;;;;;;16.87;50.58;99583.81;5204865;28;20049;-71
2022/05/01 08:29:56;;;;;;;38.10;24.00;;;;;;;16.98;51.41;99596.03;5204202;28;20037;-71
2022/05/01 08:32:46;;;;;;;35.15;23.88;;;;;;;17.02;51.23;99597.34;5203384;28;20107;-71
2022/05/01 08:35:36;;;;;;;37.88;23.35;;;;;;;17.56;48.96;99600.22;5205263;28;20049;-70
2022/05/01 08:38:26;;;;;;;35.50;23.65;;;;;;;17.26;50.57;99589.25;5204293;28;20513;-70
2022/05/01 08:41:17;;;;;;;39.80;24.58;;;;;;;17.06;51.84;99593.34;5205043;28;20080;-70
2022/05/01 08:44:13;;;;;;;41.22;24.02;;;;;;;17.03;51.93;99588.31;5204555;28;20072;-70
2022/05/01 08:47:17;;;;;;;39.53;24.05;;;;;;;17.77;51.04;99591.59;5202611;28;20048;-70
2022/05/01 08:50:09;;;;;;;31.55;21.42;;;;;;;17.65;53.12;99584.91;5204300;28;20119;-70
2022/05/01 08:53:02;;;;;;;31.42;20.98;;;;;;;17.65;50.15;99588.44;5204968;28;20115;-70
2022/05/01 08:55:53;;;;;;;37.70;24.48;;;;;;;17.01;51.62;99583.13;5204515;28;20059;-73
2022/05/01 08:58:45;;;;;;;28.05;19.38;;;;;;;17.24;50.16;99585.06;5204245;28;20424;-70
2022/05/01 09:01:37;;;;;;;35.60;23.13;;;;;;;16.23;52.97;99585.50;5204132;28;20104;-70
2022/05/01 09:04:28;;;;;;;31.40;20.25;;;;;;;16.12;50.78;99589.31;5203567;28;20183;-70
2022/05/01 09:07:19;;;;;;;27.33;19.27;;;;;;;16.79;50.63;99591.88;5204616;28;20064;-70
2022/05/01 09:10:09;;;;;;;31.55;21.10;;;;;;;16.51;50.94;99586.00;5204157;28;20124;-70
2022/05/01 09:12:59;;;;;;;33.78;20.40;;;;;;;16.83;51.06;99564.59;5204573;28;20084;-70
2022/05/01 09:15:50;;;;;;;30.73;19.38;;;;;;;17.26;50.38;99578.53;5204476;28;20049;-70
2022/05/01 09:18:45;;;;;;;34.53;21.13;;;;;;;16.66;50.84;99574.44;5204489;28;20172;-70
2022/05/01 09:21:53;;;;;;;31.58;19.73;;;;;;;17.16;50.72;99582.44;5204523;28;20049;-70
2022/05/01 09:24:43;;;;;;;30.58;19.60;;;;;;;16.58;49.80;99573.59;5204610;28;20059;-70
2022/05/01 09:27:33;;;;;;;35.08;21.90;;;;;;;16.61;52.91;99578.63;5204731;28;20088;-70
2022/05/01 09:30:38;;;;;;;31.58;21.10;;;;;;;16.36;51.45;99573.28;5204290;28;20139;-70
2022/05/01 09:33:29;;;;;;;29.85;19.92;;;;;;;16.96;51.05;99565.91;5204051;28;20061;-69
2022/05/01 09:36:37;;;;;;;28.67;19.65;;;;;;;17.14;51.78;99574.56;5204593;28;20602;-67
2022/05/01 09:39:32;;;;;;;28.27;19.77;;;;;;;15.74;52.58;99580.88;5204590;28;20053;-69
2022/05/01 09:42:29;;;;;;;32.55;19.95;;;;;;;17.13;49.93;99563.00;5203091;28;20119;-71
2022/05/01 09:45:28;;;;;;;34.47;21.27;;;;;;;17.35;50.27;99572.16;5203090;28;20242;-70
2022/05/01 09:48:20;;;;;;;30.20;20.65;;;;;;;17.47;50.08;99575.28;5200299;28;20063;-71
2022/05/01 09:51:18;;;;;;;29.95;19.88;;;;;;;16.93;49.78;99580.47;5201871;28;20056;-69
2022/05/01 09:54:08;;;;;;;29.67;18.90;;;;;;;16.85;50.73;99577.78;5202576;28;20504;-68
2022/05/01 09:57:00;;;;;;;30.73;19.30;;;;;;;17.26;49.05;99575.88;5202501;28;20080;-68
2022/05/01 09:59:51;;;;;;;30.23;19.85;;;;;;;17.31;50.61;99565.44;5202864;28;20049;-70
2022/05/01 10:02:41;;;;;;;32.63;20.13;;;;;;;17.27;52.50;99574.84;5202466;28;20050;-72
2022/05/01 10:05:31;;;;;;;28.23;19.30;;;;;;;17.29;50.66;99569.31;5202642;28;20053;-68
2022/05/01 10:08:21;;;;;;;29.45;19.45;;;;;;;17.74;49.28;99565.09;5202669;28;20060;-67
2022/05/01 10:11:17;;;;;;;30.17;18.80;;;;;;;17.53;47.86;99566.53;5202355;28;20049;-68
2022/05/01 10:14:08;;;;;;;29.42;18.15;;;;;;;17.96;48.25;99568.84;5200212;28;20130;-71
2022/05/01 10:17:00;;;;;;;27.98;17.95;;;;;;;18.20;47.55;99571.38;5194677;28;20096;-68
2022/05/01 10:19:51;;;;;;;30.98;17.25;;;;;;;18.97;45.91;99563.19;5199513;28;20092;-69
2022/05/01 10:22:42;;;;;;;28.10;16.95;;;;;;;18.76;44.44;99563.88;5199862;28;20059;-68
2022/05/01 10:25:37;;;;;;;26.25;17.65;;;;;;;19.22;46.76;99549.47;5199717;28;20060;-69
2022/05/01 10:28:42;;;;;;;25.20;16.83;;;;;;;18.91;44.31;99558.53;5201483;28;20103;-69
2022/05/01 10:35:24;;;;;;;29.58;18.15;;;;;;;19.68;43.34;99547.38;5199154;28;20049;-69
2022/05/01 10:38:38;;;;;;;28.42;15.27;;;;;;;19.38;44.57;99525.06;5201559;28;20416;-69
2022/05/01 10:41:29;;;;;;;24.85;16.48;;;;;;;18.94;41.87;99535.81;5200709;28;20059;-69
2022/05/01 10:44:37;;;;;;;21.52;15.02;;;;;;;19.11;44.15;99531.94;5202216;28;20642;-69
2022/05/01 10:47:38;;;;;;;24.88;16.17;;;;;;;20.14;44.83;99535.47;5200705;28;20554;-70
2022/05/01 10:50:28;;;;;;;21.05;15.15;;;;;;;20.44;42.52;99528.06;5199796;28;20052;-70
2022/05/01 10:53:19;;;;;;;22.95;14.65;;;;;;;20.99;40.75;99531.81;5200012;28;20056;-71
2022/05/01 10:56:25;;;;;;;23.27;15.70;;;;;;;20.61;40.47;99529.47;5199782;28;20163;-69
2022/05/01 10:59:30;;;;;;;24.65;15.10;;;;;;;20.95;43.71;99530.53;5192745;28;20562;-69
2022/05/01 11:02:24;;;;;;;22.23;14.90;;;;;;;20.19;41.95;99523.06;5200486;28;20541;-69
2022/05/01 11:05:41;;;;;;;23.52;15.02;;;;;;;19.51;41.87;99527.09;5200966;28;20095;-69
2022/05/01 11:08:36;;;;;;;25.98;17.25;;;;;;;19.49;44.58;99518.34;5201500;28;20613;-69
2022/05/01 11:11:27;;;;;;;22.67;15.88;;;;;;;18.77;45.01;99519.03;5198829;28;20483;-67
2022/05/01 11:14:17;;;;;;;25.83;17.17;;;;;;;18.91;46.11;99520.91;5199030;28;20049;-70
2022/05/01 11:17:12;;;;;;;26.33;17.23;;;;;;;18.69;44.88;99514.56;5200499;28;20076;-68
2022/05/01 11:20:08;;;;;;;21.00;15.40;;;;;;;18.10;46.97;99525.16;5199612;28;20072;-71
2022/05/01 11:23:26;;;;;;;25.55;17.92;;;;;;;18.22;46.18;99520.22;5200272;28;20064;-69
2022/05/01 11:26:19;;;;;;;26.05;17.45;;;;;;;18.05;46.44;99514.97;5200391;28;20119;-69
2022/05/01 11:29:13;;;;;;;24.80;16.40;;;;;;;18.63;46.67;99517.16;5200796;28;20411;-70
2022/05/01 11:32:17;;;;;;;;;;;;;;;18.78;44.20;99518.88;5200472;28;20111;-69
2022/05/01 11:35:07;;;;;;;23.17;15.65;;;;;;;19.30;46.39;99516.25;5206541;28;20062;-69
2022/05/01 11:38:03;;;;;;;23.55;16.10;;;;;;;18.63;45.26;99515.28;5206981;28;20538;-71
2022/05/01 11:40:57;;;;;;;23.98;16.98;;;;;;;18.80;45.18;99512.47;5185149;28;20519;-69
2022/05/01 11:44:07;;;;;;;22.35;15.65;;;;;;;18.92;47.13;99508.31;5186576;28;20079;-68
2022/05/01 11:46:57;;;;;;;22.88;15.45;;;;;;;19.33;46.65;99508.66;5187517;28;20056;-68
2022/05/01 11:49:47;;;;;;;27.15;15.88;;;;;;;19.20;45.27;99503.97;5206332;28;20088;-68
2022/05/01 11:52:39;;;;;;;23.98;15.80;;;;;;;19.16;44.06;99493.75;5207778;28;20053;-68
2022/05/01 12:05:04;;;;;;;24.50;14.88;;;;;;;18.29;47.54;99492.44;5193856;28;20099;-68
2022/05/01 12:07:56;;;;;;;25.25;15.32;;;;;;;18.62;45.96;99488.63;5208119;28;20060;-70
2022/05/01 12:10:47;;;;;;;19.27;13.45;;;;;;;18.64;45.93;99490.13;5207865;28;20048;-70
2022/05/01 12:13:38;;;;;;;27.02;16.00;;;;;;;18.93;45.45;99492.00;5209145;28;20057;-68
2022/05/01 12:16:29;;;;;;;20.60;14.35;;;;;;;18.79;45.06;99484.78;5207123;28;20187;-69
2022/05/01 12:19:20;;;;;;;21.67;13.93;;;;;;;18.66;46.65;99482.69;5205680;28;20053;-69
2022/05/01 12:22:12;;;;;;;19.20;13.90;;;;;;;19.24;43.74;99477.53;5206360;28;20046;-69
2022/05/01 12:25:03;;;;;;;19.20;13.40;;;;;;;19.16;44.10;99478.44;5207021;28;20510;-69
2022/05/01 12:27:53;;;;;;;21.55;14.15;;;;;;;18.92;43.31;99470.69;5205799;28;20061;-69
2022/05/01 12:30:45;;;;;;;23.48;13.27;;;;;;;19.03;43.49;99472.91;5207698;28;20048;-70
2022/05/01 12:33:37;;;;;;;19.55;14.02;;;;;;;18.78;44.17;99470.50;5207937;28;20057;-67
2022/05/01 12:36:27;;;;;;;20.77;14.32;;;;;;;18.11;46.26;99456.19;5206753;28;20063;-67
2022/05/01 12:39:20;;;;;;;18.60;14.15;;;;;;;18.92;48.43;99473.38;5208041;28;20065;-67
2022/05/01 12:45:22;;;;;;;21.55;15.07;;;;;;;18.57;47.75;99469.53;5202807;28;20645;-68
2022/05/01 12:48:14;;;;;;;22.13;15.10;;;;;;;17.92;48.65;99469.13;5195951;28;20136;-68
2022/05/01 12:51:05;;;;;;;21.08;16.02;;;;;;;18.53;48.05;99463.69;5202244;28;20120;-68
2022/05/01 12:54:17;;;;;;;21.25;15.55;;;;;;;18.85;46.37;99467.09;5204335;28;20068;-69
2022/05/01 12:57:30;;;;;;;25.42;15.32;;;;;;;18.68;48.31;99463.72;5202787;28;20056;-68
2022/05/01 13:00:29;;;;;;;19.95;15.07;;;;;;;18.68;47.43;99467.25;5201352;28;20156;-67
2022/05/01 13:03:19;;;;;;;24.10;15.98;;;;;;;18.68;49.13;99458.34;5204040;28;20054;-68
2022/05/01 13:06:11;;;;;;;21.20;15.05;;;;;;;18.69;47.53;99460.00;5203158;28;20128;-68
2022/05/01 13:09:02;;;;;;;23.92;15.93;;;;;;;18.58;47.90;99464.00;5202413;28;20057;-67
2022/05/01 13:12:03;;;;;;;26.23;16.05;;;;;;;18.02;47.40;99452.78;5203801;28;20073;-67
2022/05/01 13:14:58;;;;;;;24.67;16.08;;;;;;;17.64;49.19;99455.34;5203398;28;20084;-66
2022/05/01 13:18:03;;;;;;;23.48;14.63;;;;;;;17.53;49.52;99445.88;5202476;28;20167;-68
2022/05/01 13:20:54;;;;;;;21.45;14.88;;;;;;;17.85;49.43;99449.41;5202238;28;20221;-69
2022/05/01 13:23:46;;;;;;;23.48;15.48;;;;;;;18.33;48.12;99441.91;5188093;28;20061;-69
2022/05/01 13:26:37;;;;;;;26.83;16.05;;;;;;;17.88;48.26;99432.94;5203670;28;20052;-67
2022/05/01 13:29:32;;;;;;;24.33;15.23;;;;;;;17.37;50.00;99432.59;5201277;28;21370;-67
2022/05/01 13:32:22;;;;;;;25.27;16.10;;;;;;;17.82;48.30;99423.75;5201534;28;20060;-69
2022/05/01 13:35:15;;;;;;;24.48;15.48;;;;;;;18.08;46.91;99435.97;5185201;28;20071;-67
2022/05/01 13:38:05;;;;;;;23.52;15.40;;;;;;;18.37;48.21;99420.91;5203440;28;20163;-67
2022/05/01 13:47:15;;;;;;;23.20;16.02;;;;;;;17.99;49.33;99413.72;5201825;28;20068;-67
2022/05/01 13:50:06;;;;;;;23.20;15.45;;;;;;;18.77;47.86;99407.06;5202678;28;20206;-68
2022/05/01 13:52:56;;;;;;;25.17;16.25;;;;;;;18.71;47.86;99407.78;5188006;28;20154;-68
2022/05/01 13:55:47;;;;;;;21.90;16.35;;;;;;;18.45;46.34;99402.88;5201153;28;20215;-67